Terminal Aerodrome Forecast
Issued by NWS

Home | Current Version | Previous Version | Text Only | Print | Product List | Glossary On
Versions: 1 2 3 4 5 6 7 8 9 10 11 12 13 14 15 16 17 18 19 20 21
548
FTUS44 KOHX 261241 AAA
TAFCKV
TAF AMD
KCKV 261241Z 2613/2712 22005KT P6SM SCT002
      TEMPO 2613/2614 4SM BR OVC002
     FM261400 24006KT P6SM SCT035
     FM261900 24006KT P6SM VCTS SCT045CB BKN100
     FM270100 VRB03KT P6SM SCT250
     FM270800 00000KT 4SM BR SCT250=

USA.gov is the U.S. government's official web portal to all federal, state and local government web resources and services.